Red Diamond — A8UM9 — position and weather

sailwx.info

Track history (hours):
 
Tides and Currents Weather Stations Pressure Air Temp Water Temp Dewpoint Dewpoint Depression Visibility Wind Speed Wind Dir Waves Ship Positions

Red Diamond

Last reported at 2017-Jan-26 09:30 UTC. Time now 2017-Feb-26 14:32 UTC.
Position N 01°15' E 104°03'.
Warning: this ship's position is 31 days out of date.

Length 190 m; draft 5.5 m.

Type: Cargo ship. MMSI: 636014524.

Date/timePositionNaut miles runAvg speedWind from/ knotsBaromVisibWave heightAir tempDewpointWater temp
2017-Jan-26 09:30N 01°15' E 104°03'9 9.5
2017-Jan-26 08:34N 01°12' E 103°54'5 5.1
2017-Jan-26 07:33N 01°13' E 103°49'0 0.2
2017-Jan-26 06:30N 01°13' E 103°49'3 2.9
2017-Jan-26 05:33N 01°15' E 103°48'1 0.3
2017-Jan-26 03:34N 01°15' E 103°48'0 0.0
2017-Jan-26 02:25N 01°15' E 103°48'0 0.0
2017-Jan-25 23:07N 01°15' E 103°48'0 0.0
2017-Jan-25 22:04N 01°15' E 103°48'0 0.0
2017-Jan-25 21:34N 01°15' E 103°48'0 0.0
2017-Jan-25 19:28N 01°15' E 103°48'0 0.0
2017-Jan-25 18:10N 01°15' E 103°48'0 0.0
2017-Jan-25 17:28N 01°15' E 103°48'0 0.1
2017-Jan-25 16:28N 01°15' E 103°48'0 0.1
2017-Jan-25 15:34N 01°15' E 103°48'0 0.0
2017-Jan-25 14:34N 01°15' E 103°48'0 0.0
2017-Jan-25 11:13N 01°15' E 103°48'0 0.6
2017-Jan-25 10:33N 01°15' E 103°48'7 6.3
2017-Jan-25 09:30N 01°13' E 103°42'  
Track history (hours):
 
Tides and Currents Weather Stations Pressure Air Temp Water Temp Dewpoint Dewpoint Depression Visibility Wind Speed Wind Dir Waves Ship Positions

Red Diamond

Last reported at 2017-Jan-26 09:30 UTC. Time now 2017-Feb-26 14:32 UTC.
Position N 01°15' E 104°03'.
Warning: this ship's position is 31 days out of date.

Length 190 m; draft 5.5 m.

Type: Cargo ship. MMSI: 636014524.

Date/timePositionNaut miles runAvg speedWind from/ knotsBaromVisibWave heightAir tempDewpointWater temp
2017-Jan-26 09:30N 01°15' E 104°03'9 9.5
2017-Jan-26 08:34N 01°12' E 103°54'5 5.1
2017-Jan-26 07:33N 01°13' E 103°49'0 0.2
2017-Jan-26 06:30N 01°13' E 103°49'3 2.9
2017-Jan-26 05:33N 01°15' E 103°48'1 0.3
2017-Jan-26 03:34N 01°15' E 103°48'0 0.0
2017-Jan-26 02:25N 01°15' E 103°48'0 0.0
2017-Jan-25 23:07N 01°15' E 103°48'0 0.0
2017-Jan-25 22:04N 01°15' E 103°48'0 0.0
2017-Jan-25 21:34N 01°15' E 103°48'0 0.0
2017-Jan-25 19:28N 01°15' E 103°48'0 0.0
2017-Jan-25 18:10N 01°15' E 103°48'0 0.0
2017-Jan-25 17:28N 01°15' E 103°48'0 0.1
2017-Jan-25 16:28N 01°15' E 103°48'0 0.1
2017-Jan-25 15:34N 01°15' E 103°48'0 0.0
2017-Jan-25 14:34N 01°15' E 103°48'0 0.0
2017-Jan-25 11:13N 01°15' E 103°48'0 0.6
2017-Jan-25 10:33N 01°15' E 103°48'7 6.3
2017-Jan-25 09:30N 01°13' E 103°42'  

Dump ship's entire track history